sensor_id;sensor_type;location;lat;lon;timestamp;pressure;altitude;pressure_sealevel;temperature;humidity
34925;BME280;21130;51.728;8.748;2023-04-08T00:00:19;100972.00;;;0.78;100.00
34925;BME280;21130;51.728;8.748;2023-04-08T00:02:45;100968.03;;;0.72;100.00
34925;BME280;21130;51.728;8.748;2023-04-08T00:05:12;100973.00;;;0.77;100.00
34925;BME280;21130;51.728;8.748;2023-04-08T00:07:38;100975.38;;;0.72;100.00
34925;BME280;21130;51.728;8.748;2023-04-08T00:10:06;100973.34;;;0.74;100.00
34925;BME280;21130;51.728;8.748;2023-04-08T00:12:33;100977.44;;;0.78;100.00
34925;BME280;21130;51.728;8.748;2023-04-08T00:15:01;100972.31;;;0.75;100.00
34925;BME280;21130;51.728;8.748;2023-04-08T00:17:27;100977.78;;;0.75;100.00
34925;BME280;21130;51.728;8.748;2023-04-08T00:19:54;100979.66;;;0.82;100.00
34925;BME280;21130;51.728;8.748;2023-04-08T00:22:20;100978.66;;;0.83;100.00
34925;BME280;21130;51.728;8.748;2023-04-08T00:24:47;100983.75;;;0.86;100.00
34925;BME280;21130;51.728;8.748;2023-04-08T00:27:13;100985.66;;;0.86;100.00
34925;BME280;21130;51.728;8.748;2023-04-08T00:29:40;100985.47;;;0.88;100.00
34925;BME280;21130;51.728;8.748;2023-04-08T00:32:08;100983.06;;;0.93;100.00
34925;BME280;21130;51.728;8.748;2023-04-08T00:34:34;100984.28;;;0.98;100.00
34925;BME280;21130;51.728;8.748;2023-04-08T00:37:02;100988.56;;;1.09;100.00
34925;BME280;21130;51.728;8.748;2023-04-08T00:39:29;100983.59;;;1.13;100.00
34925;BME280;21130;51.728;8.748;2023-04-08T00:41:55;100986.34;;;1.21;100.00
34925;BME280;21130;51.728;8.748;2023-04-08T00:44:22;100984.09;;;1.24;100.00
34925;BME280;21130;51.728;8.748;2023-04-08T00:46:49;100983.59;;;1.29;100.00
34925;BME280;21130;51.728;8.748;2023-04-08T00:49:17;100983.22;;;1.32;100.00
34925;BME280;21130;51.728;8.748;2023-04-08T00:51:43;100986.13;;;1.39;100.00
34925;BME280;21130;51.728;8.748;2023-04-08T00:54:10;100985.41;;;1.61;100.00
34925;BME280;21130;51.728;8.748;2023-04-08T00:56:37;100992.44;;;1.56;100.00
34925;BME280;21130;51.728;8.748;2023-04-08T00:59:04;100991.25;;;1.58;100.00
34925;BME280;21130;51.728;8.748;2023-04-08T01:01:33;100990.38;;;1.58;100.00
34925;BME280;21130;51.728;8.748;2023-04-08T01:04:10;100998.50;;;1.82;100.00
34925;BME280;21130;51.728;8.748;2023-04-08T01:06:43;100985.47;;;2.01;100.00
34925;BME280;21130;51.728;8.748;2023-04-08T01:09:17;100985.97;;;2.04;100.00
34925;BME280;21130;51.728;8.748;2023-04-08T01:11:48;100988.38;;;1.99;100.00
34925;BME280;21130;51.728;8.748;2023-04-08T01:14:18;100987.19;;;1.93;100.00
34925;BME280;21130;51.728;8.748;2023-04-08T01:16:45;100993.00;;;1.90;100.00
34925;BME280;21130;51.728;8.748;2023-04-08T01:19:21;100986.88;;;1.88;100.00
34925;BME280;21130;51.728;8.748;2023-04-08T01:21:51;100993.38;;;1.87;100.00
34925;BME280;21130;51.728;8.748;2023-04-08T01:24:25;100992.34;;;1.88;100.00
34925;BME280;21130;51.728;8.748;2023-04-08T01:26:55;100987.00;;;1.95;100.00
34925;BME280;21130;51.728;8.748;2023-04-08T01:29:23;100989.94;;;1.93;100.00
34925;BME280;21130;51.728;8.748;2023-04-08T01:31:52;100991.91;;;2.08;100.00
34925;BME280;21130;51.728;8.748;2023-04-08T01:34:20;100993.31;;;2.04;100.00
34925;BME280;21130;51.728;8.748;2023-04-08T01:36:47;100983.47;;;2.26;100.00
34925;BME280;21130;51.728;8.748;2023-04-08T01:39:16;100984.00;;;2.21;100.00
34925;BME280;21130;51.728;8.748;2023-04-08T01:41:45;100987.06;;;2.18;100.00
34925;BME280;21130;51.728;8.748;2023-04-08T01:44:14;100985.63;;;2.38;100.00
34925;BME280;21130;51.728;8.748;2023-04-08T01:46:42;100981.69;;;2.41;100.00
34925;BME280;21130;51.728;8.748;2023-04-08T01:49:10;100991.09;;;2.38;100.00
34925;BME280;21130;51.728;8.748;2023-04-08T01:51:37;100991.09;;;2.38;100.00
34925;BME280;21130;51.728;8.748;2023-04-08T01:54:04;100987.63;;;2.45;100.00
34925;BME280;21130;51.728;8.748;2023-04-08T01:56:35;100993.06;;;2.53;100.00
34925;BME280;21130;51.728;8.748;2023-04-08T01:59:05;100983.41;;;2.65;100.00
34925;BME280;21130;51.728;8.748;2023-04-08T02:01:36;100983.03;;;2.68;100.00
34925;BME280;21130;51.728;8.748;2023-04-08T02:04:03;100989.16;;;2.78;100.00
34925;BME280;21130;51.728;8.748;2023-04-08T02:06:30;100987.13;;;2.72;100.00
34925;BME280;21130;51.728;8.748;2023-04-08T02:08:58;100984.75;;;2.69;100.00
34925;BME280;21130;51.728;8.748;2023-04-08T02:11:25;100991.94;;;2.70;100.00
34925;BME280;21130;51.728;8.748;2023-04-08T02:13:52;100986.66;;;2.69;100.00
34925;BME280;21130;51.728;8.748;2023-04-08T02:16:23;100997.41;;;2.70;100.00
34925;BME280;21130;51.728;8.748;2023-04-08T02:18:55;100997.25;;;2.72;100.00
34925;BME280;21130;51.728;8.748;2023-04-08T02:21:25;100993.44;;;2.73;100.00
34925;BME280;21130;51.728;8.748;2023-04-08T02:23:53;100996.69;;;2.76;100.00
34925;BME280;21130;51.728;8.748;2023-04-08T02:26:21;100993.22;;;2.83;100.00
34925;BME280;21130;51.728;8.748;2023-04-08T02:28:48;101003.28;;;2.90;100.00
34925;BME280;21130;51.728;8.748;2023-04-08T02:31:16;100990.59;;;2.89;100.00
34925;BME280;21130;51.728;8.748;2023-04-08T02:33:44;100990.72;;;2.96;100.00
34925;BME280;21130;51.728;8.748;2023-04-08T02:36:13;100987.41;;;3.00;100.00
34925;BME280;21130;51.728;8.748;2023-04-08T02:38:40;100980.16;;;3.08;100.00
34925;BME280;21130;51.728;8.748;2023-04-08T02:41:07;100969.19;;;3.08;100.00
34925;BME280;21130;51.728;8.748;2023-04-08T02:43:33;100979.16;;;3.09;100.00
34925;BME280;21130;51.728;8.748;2023-04-08T02:46:00;100986.31;;;3.10;100.00
34925;BME280;21130;51.728;8.748;2023-04-08T02:48:29;100990.97;;;3.09;100.00
34925;BME280;21130;51.728;8.748;2023-04-08T02:50:55;101003.47;;;3.12;100.00
34925;BME280;21130;51.728;8.748;2023-04-08T02:53:24;101003.75;;;3.17;100.00
34925;BME280;21130;51.728;8.748;2023-04-08T02:55:50;101000.81;;;3.18;100.00
34925;BME280;21130;51.728;8.748;2023-04-08T02:58:17;100993.25;;;3.20;100.00
34925;BME280;21130;51.728;8.748;2023-04-08T03:00:43;101009.84;;;3.27;100.00
34925;BME280;21130;51.728;8.748;2023-04-08T03:03:10;101006.25;;;3.27;100.00
34925;BME280;21130;51.728;8.748;2023-04-08T03:05:36;101000.31;;;3.38;100.00
34925;BME280;21130;51.728;8.748;2023-04-08T03:08:03;101006.63;;;3.38;100.00
34925;BME280;21130;51.728;8.748;2023-04-08T03:10:32;101006.00;;;3.36;100.00
34925;BME280;21130;51.728;8.748;2023-04-08T03:12:58;101001.06;;;3.32;100.00
34925;BME280;21130;51.728;8.748;2023-04-08T03:15:25;101007.56;;;3.31;100.00
34925;BME280;21130;51.728;8.748;2023-04-08T03:17:51;101008.25;;;3.33;100.00
34925;BME280;21130;51.728;8.748;2023-04-08T03:20:18;101005.13;;;3.36;100.00
34925;BME280;21130;51.728;8.748;2023-04-08T03:22:44;101015.44;;;3.34;100.00
34925;BME280;21130;51.728;8.748;2023-04-08T03:25:11;101009.28;;;3.32;100.00
34925;BME280;21130;51.728;8.748;2023-04-08T03:27:39;101011.19;;;3.31;100.00
34925;BME280;21130;51.728;8.748;2023-04-08T03:30:06;101019.59;;;3.30;100.00
34925;BME280;21130;51.728;8.748;2023-04-08T03:32:33;101009.59;;;3.37;100.00
34925;BME280;21130;51.728;8.748;2023-04-08T03:35:00;101012.50;;;3.35;100.00
34925;BME280;21130;51.728;8.748;2023-04-08T03:37:26;101011.66;;;3.35;100.00
34925;BME280;21130;51.728;8.748;2023-04-08T03:39:53;101006.16;;;3.35;100.00
34925;BME280;21130;51.728;8.748;2023-04-08T03:42:20;101017.63;;;3.38;100.00
34925;BME280;21130;51.728;8.748;2023-04-08T03:44:48;101026.50;;;3.40;100.00
34925;BME280;21130;51.728;8.748;2023-04-08T03:47:14;101024.63;;;3.41;100.00
34925;BME280;21130;51.728;8.748;2023-04-08T03:49:41;101022.94;;;3.40;100.00
34925;BME280;21130;51.728;8.748;2023-04-08T03:52:08;101028.41;;;3.40;100.00
34925;BME280;21130;51.728;8.748;2023-04-08T03:54:34;101030.78;;;3.43;100.00
34925;BME280;21130;51.728;8.748;2023-04-08T03:57:01;101027.97;;;3.51;100.00
34925;BME280;21130;51.728;8.748;2023-04-08T03:59:30;101023.38;;;3.66;100.00
34925;BME280;21130;51.728;8.748;2023-04-08T04:01:59;101017.84;;;3.52;100.00
34925;BME280;21130;51.728;8.748;2023-04-08T04:04:25;101012.56;;;3.65;100.00
34925;BME280;21130;51.728;8.748;2023-04-08T04:06:52;101019.94;;;3.64;100.00
34925;BME280;21130;51.728;8.748;2023-04-08T04:09:18;101019.38;;;3.54;100.00
34925;BME280;21130;51.728;8.748;2023-04-08T04:11:45;101016.72;;;3.61;100.00
34925;BME280;21130;51.728;8.748;2023-04-08T04:14:11;101023.72;;;3.63;100.00
34925;BME280;21130;51.728;8.748;2023-04-08T04:16:38;101018.63;;;3.60;100.00
34925;BME280;21130;51.728;8.748;2023-04-08T04:19:05;101025.44;;;3.64;100.00
34925;BME280;21130;51.728;8.748;2023-04-08T04:21:32;101027.22;;;3.57;100.00
34925;BME280;21130;51.728;8.748;2023-04-08T04:23:58;101021.84;;;3.64;100.00
34925;BME280;21130;51.728;8.748;2023-04-08T04:26:25;101023.72;;;3.63;100.00
34925;BME280;21130;51.728;8.748;2023-04-08T04:28:51;101032.03;;;3.55;100.00
34925;BME280;21130;51.728;8.748;2023-04-08T04:31:19;101030.06;;;3.49;100.00
34925;BME280;21130;51.728;8.748;2023-04-08T04:33:46;101027.31;;;3.49;100.00
34925;BME280;21130;51.728;8.748;2023-04-08T04:36:14;101032.59;;;3.51;100.00
34925;BME280;21130;51.728;8.748;2023-04-08T04:38:40;101034.66;;;3.49;100.00
34925;BME280;21130;51.728;8.748;2023-04-08T04:41:08;101030.25;;;3.62;100.00
34925;BME280;21130;51.728;8.748;2023-04-08T04:43:34;101042.59;;;3.66;100.00
34925;BME280;21130;51.728;8.748;2023-04-08T04:46:01;101034.41;;;3.58;100.00
34925;BME280;21130;51.728;8.748;2023-04-08T04:48:28;101036.13;;;3.59;100.00
34925;BME280;21130;51.728;8.748;2023-04-08T04:50:56;101036.00;;;3.53;100.00
34925;BME280;21130;51.728;8.748;2023-04-08T04:53:24;101032.72;;;3.57;100.00
34925;BME280;21130;51.728;8.748;2023-04-08T04:55:50;101034.66;;;3.49;100.00
34925;BME280;21130;51.728;8.748;2023-04-08T04:58:17;101042.00;;;3.56;100.00
34925;BME280;21130;51.728;8.748;2023-04-08T05:00:44;101043.56;;;3.51;100.00
34925;BME280;21130;51.728;8.748;2023-04-08T05:03:11;101042.72;;;3.50;100.00
34925;BME280;21130;51.728;8.748;2023-04-08T05:05:37;101056.06;;;3.53;100.00
34925;BME280;21130;51.728;8.748;2023-04-08T05:08:04;101052.47;;;3.53;100.00
34925;BME280;21130;51.728;8.748;2023-04-08T05:10:33;101050.63;;;3.68;100.00
34925;BME280;21130;51.728;8.748;2023-04-08T05:12:59;101053.66;;;3.73;100.00
34925;BME280;21130;51.728;8.748;2023-04-08T05:15:26;101047.69;;;3.70;100.00
34925;BME280;21130;51.728;8.748;2023-04-08T05:17:52;101053.56;;;3.66;100.00
34925;BME280;21130;51.728;8.748;2023-04-08T05:20:19;101051.75;;;3.74;100.00
34925;BME280;21130;51.728;8.748;2023-04-08T05:22:45;101049.63;;;3.84;100.00
34925;BME280;21130;51.728;8.748;2023-04-08T05:25:12;101046.50;;;3.87;100.00
34925;BME280;21130;51.728;8.748;2023-04-08T05:27:40;101051.69;;;3.82;100.00
34925;BME280;21130;51.728;8.748;2023-04-08T05:30:07;101051.19;;;3.78;100.00
34925;BME280;21130;51.728;8.748;2023-04-08T05:32:34;101055.47;;;3.81;100.00
34925;BME280;21130;51.728;8.748;2023-04-08T05:35:01;101060.31;;;3.79;100.00
34925;BME280;21130;51.728;8.748;2023-04-08T05:37:28;101058.22;;;3.81;100.00
34925;BME280;21130;51.728;8.748;2023-04-08T05:39:55;101066.28;;;3.82;100.00
34925;BME280;21130;51.728;8.748;2023-04-08T05:42:21;101078.09;;;3.83;100.00
34925;BME280;21130;51.728;8.748;2023-04-08T05:44:49;101078.78;;;3.85;100.00
34925;BME280;21130;51.728;8.748;2023-04-08T05:47:16;101078.59;;;3.86;100.00
34925;BME280;21130;51.728;8.748;2023-04-08T05:49:42;101078.97;;;3.98;100.00
34925;BME280;21130;51.728;8.748;2023-04-08T05:52:09;101080.69;;;3.99;100.00
34925;BME280;21130;51.728;8.748;2023-04-08T05:54:35;101087.50;;;4.03;100.00
34925;BME280;21130;51.728;8.748;2023-04-08T05:57:02;101083.06;;;4.02;100.00
34925;BME280;21130;51.728;8.748;2023-04-08T05:59:28;101093.38;;;4.00;100.00
34925;BME280;21130;51.728;8.748;2023-04-08T06:01:56;101093.53;;;3.99;100.00
34925;BME280;21130;51.728;8.748;2023-04-08T06:04:23;101101.22;;;4.03;100.00
34925;BME280;21130;51.728;8.748;2023-04-08T06:06:49;101103.63;;;4.06;100.00
34925;BME280;21130;51.728;8.748;2023-04-08T06:09:16;101101.06;;;4.20;100.00
34925;BME280;21130;51.728;8.748;2023-04-08T06:11:42;101091.22;;;4.25;100.00
34925;BME280;21130;51.728;8.748;2023-04-08T06:14:11;101105.44;;;4.29;100.00
34925;BME280;21130;51.728;8.748;2023-04-08T06:16:38;101099.28;;;4.27;100.00
34925;BME280;21130;51.728;8.748;2023-04-08T06:19:05;101106.75;;;4.33;100.00
34925;BME280;21130;51.728;8.748;2023-04-08T06:21:32;101117.19;;;4.38;100.00
34925;BME280;21130;51.728;8.748;2023-04-08T06:23:58;101122.56;;;4.31;100.00
34925;BME280;21130;51.728;8.748;2023-04-08T06:26:25;101119.81;;;4.31;100.00
34925;BME280;21130;51.728;8.748;2023-04-08T06:28:52;101129.78;;;4.32;100.00
34925;BME280;21130;51.728;8.748;2023-04-08T06:31:18;101138.09;;;4.39;100.00
34925;BME280;21130;51.728;8.748;2023-04-08T06:33:45;101133.22;;;4.34;100.00
34925;BME280;21130;51.728;8.748;2023-04-08T06:36:12;101129.69;;;4.40;100.00
34925;BME280;21130;51.728;8.748;2023-04-08T06:38:39;101136.81;;;4.49;100.00
34925;BME280;21130;51.728;8.748;2023-04-08T06:41:06;101140.59;;;4.48;100.00
34925;BME280;21130;51.728;8.748;2023-04-08T06:43:34;101134.06;;;4.49;100.00
34925;BME280;21130;51.728;8.748;2023-04-08T06:46:01;101132.25;;;4.57;100.00
34925;BME280;21130;51.728;8.748;2023-04-08T06:48:28;101129.78;;;4.62;100.00
34925;BME280;21130;51.728;8.748;2023-04-08T06:50:55;101133.56;;;4.61;100.00
34925;BME280;21130;51.728;8.748;2023-04-08T06:56:30;101138.31;;;4.67;100.00
34925;BME280;21130;51.728;8.748;2023-04-08T06:58:57;101137.53;;;4.73;100.00
34925;BME280;21130;51.728;8.748;2023-04-08T07:01:23;101146.06;;;4.78;100.00
34925;BME280;21130;51.728;8.748;2023-04-08T07:03:50;101160.88;;;4.77;100.00
34925;BME280;21130;51.728;8.748;2023-04-08T07:06:16;101148.72;;;4.86;100.00
34925;BME280;21130;51.728;8.748;2023-04-08T07:08:43;101163.00;;;4.96;100.00
34925;BME280;21130;51.728;8.748;2023-04-08T07:11:09;101161.41;;;5.02;100.00
34925;BME280;21130;51.728;8.748;2023-04-08T07:13:37;101151.00;;;4.97;100.00
34925;BME280;21130;51.728;8.748;2023-04-08T07:16:04;101154.94;;;5.10;100.00
34925;BME280;21130;51.728;8.748;2023-04-08T07:18:31;101159.97;;;5.06;100.00
34925;BME280;21130;51.728;8.748;2023-04-08T07:20:58;101162.94;;;5.05;100.00
34925;BME280;21130;51.728;8.748;2023-04-08T07:23:25;101163.31;;;5.02;100.00
34925;BME280;21130;51.728;8.748;2023-04-08T07:25:51;101154.19;;;5.01;100.00
34925;BME280;21130;51.728;8.748;2023-04-08T07:28:18;101161.22;;;5.04;100.00
34925;BME280;21130;51.728;8.748;2023-04-08T07:30:46;101169.09;;;5.07;100.00
34925;BME280;21130;51.728;8.748;2023-04-08T07:33:12;101167.59;;;5.04;100.00
34925;BME280;21130;51.728;8.748;2023-04-08T07:35:40;101168.03;;;5.08;100.00
34925;BME280;21130;51.728;8.748;2023-04-08T07:38:07;101171.53;;;5.16;100.00
34925;BME280;21130;51.728;8.748;2023-04-08T07:40:35;101184.44;;;5.16;100.00
34925;BME280;21130;51.728;8.748;2023-04-08T07:43:02;101187.28;;;5.08;100.00
34925;BME280;21130;51.728;8.748;2023-04-08T07:45:28;101186.72;;;5.12;100.00
34925;BME280;21130;51.728;8.748;2023-04-08T07:47:56;101187.19;;;5.16;100.00
34925;BME280;21130;51.728;8.748;2023-04-08T07:50:23;101178.47;;;5.12;100.00
34925;BME280;21130;51.728;8.748;2023-04-08T07:52:49;101181.13;;;5.06;100.00
34925;BME280;21130;51.728;8.748;2023-04-08T07:55:17;101190.06;;;5.08;100.00
34925;BME280;21130;51.728;8.748;2023-04-08T07:57:44;101194.03;;;5.20;100.00
34925;BME280;21130;51.728;8.748;2023-04-08T08:00:12;101191.53;;;5.25;100.00
34925;BME280;21130;51.728;8.748;2023-04-08T08:02:44;101193.50;;;5.31;100.00
34925;BME280;21130;51.728;8.748;2023-04-08T08:05:13;101197.72;;;5.49;100.00
34925;BME280;21130;51.728;8.748;2023-04-08T08:07:40;101196.13;;;5.54;100.00
34925;BME280;21130;51.728;8.748;2023-04-08T08:10:07;101211.44;;;5.63;100.00
34925;BME280;21130;51.728;8.748;2023-04-08T08:12:34;101205.50;;;5.60;100.00
34925;BME280;21130;51.728;8.748;2023-04-08T08:15:01;101201.28;;;5.64;100.00
34925;BME280;21130;51.728;8.748;2023-04-08T08:17:27;101220.19;;;5.67;100.00
34925;BME280;21130;51.728;8.748;2023-04-08T08:19:55;101219.00;;;5.76;100.00
34925;BME280;21130;51.728;8.748;2023-04-08T08:22:23;101213.38;;;5.84;100.00
34925;BME280;21130;51.728;8.748;2023-04-08T08:24:54;101205.13;;;5.84;100.00
34925;BME280;21130;51.728;8.748;2023-04-08T08:27:21;101213.72;;;5.96;100.00
34925;BME280;21130;51.728;8.748;2023-04-08T08:29:47;101214.09;;;5.93;100.00
34925;BME280;21130;51.728;8.748;2023-04-08T08:32:13;101209.56;;;5.85;100.00
34925;BME280;21130;51.728;8.748;2023-04-08T08:34:40;101204.66;;;5.81;100.00
34925;BME280;21130;51.728;8.748;2023-04-08T08:37:07;101215.16;;;5.92;100.00
34925;BME280;21130;51.728;8.748;2023-04-08T08:39:34;101210.75;;;5.76;100.00
34925;BME280;21130;51.728;8.748;2023-04-08T08:42:01;101210.63;;;5.84;100.00
34925;BME280;21130;51.728;8.748;2023-04-08T08:44:28;101212.88;;;5.96;100.00
34925;BME280;21130;51.728;8.748;2023-04-08T08:46:55;101210.78;;;5.98;100.00
34925;BME280;21130;51.728;8.748;2023-04-08T08:49:22;101214.72;;;6.10;100.00
34925;BME280;21130;51.728;8.748;2023-04-08T08:51:49;101213.66;;;6.11;100.00
34925;BME280;21130;51.728;8.748;2023-04-08T08:54:15;101218.31;;;6.32;100.00
34925;BME280;21130;51.728;8.748;2023-04-08T08:56:43;101219.16;;;6.33;100.00
34925;BME280;21130;51.728;8.748;2023-04-08T08:59:10;101226.09;;;6.57;100.00
34925;BME280;21130;51.728;8.748;2023-04-08T09:01:38;101226.50;;;6.82;100.00
34925;BME280;21130;51.728;8.748;2023-04-08T09:04:08;101236.03;;;7.14;100.00
34925;BME280;21130;51.728;8.748;2023-04-08T09:06:35;101229.50;;;7.28;100.00
34925;BME280;21130;51.728;8.748;2023-04-08T09:09:02;101230.81;;;7.39;100.00
34925;BME280;21130;51.728;8.748;2023-04-08T09:11:30;101218.59;;;7.62;100.00
34925;BME280;21130;51.728;8.748;2023-04-08T09:13:58;101218.88;;;7.93;100.00
34925;BME280;21130;51.728;8.748;2023-04-08T09:16:25;101226.75;;;8.03;100.00
34925;BME280;21130;51.728;8.748;2023-04-08T09:18:52;101217.63;;;8.22;100.00
34925;BME280;21130;51.728;8.748;2023-04-08T09:21:21;101230.88;;;8.40;100.00
34925;BME280;21130;51.728;8.748;2023-04-08T09:23:49;101229.56;;;8.56;100.00
34925;BME280;21130;51.728;8.748;2023-04-08T09:26:17;101230.38;;;8.17;100.00
34925;BME280;21130;51.728;8.748;2023-04-08T09:28:58;101233.41;;;8.42;100.00
34925;BME280;21130;51.728;8.748;2023-04-08T09:31:27;101239.56;;;8.44;100.00
34925;BME280;21130;51.728;8.748;2023-04-08T09:33:57;101241.91;;;8.47;100.00
34925;BME280;21130;51.728;8.748;2023-04-08T09:36:25;101243.59;;;8.28;100.00
34925;BME280;21130;51.728;8.748;2023-04-08T09:38:53;101242.75;;;8.48;100.00
34925;BME280;21130;51.728;8.748;2023-04-08T09:41:20;101243.84;;;8.47;100.00
34925;BME280;21130;51.728;8.748;2023-04-08T09:43:49;101243.59;;;8.28;100.00
34925;BME280;21130;51.728;8.748;2023-04-08T09:46:24;101247.63;;;8.39;100.00
34925;BME280;21130;51.728;8.748;2023-04-08T09:48:57;101250.84;;;8.49;100.00
34925;BME280;21130;51.728;8.748;2023-04-08T09:51:28;101244.50;;;8.55;100.00
34925;BME280;21130;51.728;8.748;2023-04-08T09:54:00;101248.53;;;8.53;100.00
34925;BME280;21130;51.728;8.748;2023-04-08T09:56:32;101261.66;;;8.37;100.00
34925;BME280;21130;51.728;8.748;2023-04-08T09:59:02;101255.91;;;8.32;100.00
34925;BME280;21130;51.728;8.748;2023-04-08T10:01:38;101256.56;;;8.21;100.00
34925;BME280;21130;51.728;8.748;2023-04-08T10:07:13;101251.72;;;8.56;100.00
34925;BME280;21130;51.728;8.748;2023-04-08T10:09:40;101249.56;;;8.45;100.00
34925;BME280;21130;51.728;8.748;2023-04-08T10:12:08;101252.13;;;8.60;100.00
34925;BME280;21130;51.728;8.748;2023-04-08T10:14:34;101257.88;;;8.78;100.00
34925;BME280;21130;51.728;8.748;2023-04-08T10:17:24;101256.31;;;9.02;100.00
34925;BME280;21130;51.728;8.748;2023-04-08T10:19:51;101250.72;;;9.29;100.00
34925;BME280;21130;51.728;8.748;2023-04-08T10:22:46;101246.50;;;9.71;100.00
34925;BME280;21130;51.728;8.748;2023-04-08T10:25:29;101246.97;;;10.00;100.00
34925;BME280;21130;51.728;8.748;2023-04-08T10:27:56;101250.38;;;10.02;100.00
34925;BME280;21130;51.728;8.748;2023-04-08T10:30:44;101254.13;;;10.14;100.00
34925;BME280;21130;51.728;8.748;2023-04-08T10:33:15;101246.66;;;10.15;100.00
34925;BME280;21130;51.728;8.748;2023-04-08T10:35:45;101251.81;;;10.11;100.00
34925;BME280;21130;51.728;8.748;2023-04-08T10:38:12;101252.88;;;10.10;100.00
34925;BME280;21130;51.728;8.748;2023-04-08T10:40:40;101257.00;;;10.01;100.00
34925;BME280;21130;51.728;8.748;2023-04-08T10:43:08;101243.34;;;9.61;100.00
34925;BME280;21130;51.728;8.748;2023-04-08T10:45:35;101250.91;;;9.41;100.00
34925;BME280;21130;51.728;8.748;2023-04-08T10:48:17;101255.56;;;9.47;100.00
34925;BME280;21130;51.728;8.748;2023-04-08T10:50:51;101250.72;;;9.81;100.00
34925;BME280;21130;51.728;8.748;2023-04-08T10:53:23;101240.53;;;10.06;100.00
34925;BME280;21130;51.728;8.748;2023-04-08T10:55:51;101244.72;;;10.15;100.00
34925;BME280;21130;51.728;8.748;2023-04-08T10:58:18;101251.91;;;10.30;100.00
34925;BME280;21130;51.728;8.748;2023-04-08T11:00:44;101248.41;;;10.09;100.00
34925;BME280;21130;51.728;8.748;2023-04-08T11:03:11;101246.25;;;10.11;100.00
34925;BME280;21130;51.728;8.748;2023-04-08T11:05:39;101240.19;;;10.28;100.00
34925;BME280;21130;51.728;8.748;2023-04-08T11:08:06;101242.41;;;10.44;100.00
34925;BME280;21130;51.728;8.748;2023-04-08T11:10:36;101250.25;;;10.15;100.00
34925;BME280;21130;51.728;8.748;2023-04-08T11:13:05;101251.19;;;10.09;100.00
34925;BME280;21130;51.728;8.748;2023-04-08T11:15:32;101255.47;;;10.05;100.00
34925;BME280;21130;51.728;8.748;2023-04-08T11:18:01;101247.41;;;9.97;100.00
34925;BME280;21130;51.728;8.748;2023-04-08T11:20:27;101247.19;;;9.99;100.00
34925;BME280;21130;51.728;8.748;2023-04-08T11:22:56;101259.41;;;9.91;100.00
34925;BME280;21130;51.728;8.748;2023-04-08T11:25:26;101252.13;;;9.97;100.00
34925;BME280;21130;51.728;8.748;2023-04-08T11:27:52;101250.00;;;9.92;100.00
34925;BME280;21130;51.728;8.748;2023-04-08T11:30:19;101255.81;;;9.84;100.00
34925;BME280;21130;51.728;8.748;2023-04-08T11:32:46;101258.94;;;9.94;100.00
34925;BME280;21130;51.728;8.748;2023-04-08T11:35:15;101252.94;;;10.04;100.00
34925;BME280;21130;51.728;8.748;2023-04-08T11:37:42;101256.38;;;9.99;100.00
34925;BME280;21130;51.728;8.748;2023-04-08T11:40:19;101258.34;;;10.24;100.00
34925;BME280;21130;51.728;8.748;2023-04-08T11:42:46;101252.34;;;10.33;100.00
34925;BME280;21130;51.728;8.748;2023-04-08T11:45:14;101250.97;;;10.43;100.00
34925;BME280;21130;51.728;8.748;2023-04-08T11:47:41;101247.28;;;10.49;100.00
34925;BME280;21130;51.728;8.748;2023-04-08T11:50:08;101251.03;;;10.36;100.00
34925;BME280;21130;51.728;8.748;2023-04-08T11:52:43;101247.00;;;10.32;100.00
34925;BME280;21130;51.728;8.748;2023-04-08T11:55:09;101254.16;;;10.46;100.00
34925;BME280;21130;51.728;8.748;2023-04-08T11:57:38;101248.53;;;10.53;100.00
34925;BME280;21130;51.728;8.748;2023-04-08T12:00:05;101251.81;;;10.68;100.00
34925;BME280;21130;51.728;8.748;2023-04-08T12:02:33;101256.50;;;10.43;100.00
34925;BME280;21130;51.728;8.748;2023-04-08T12:04:59;101260.41;;;10.35;100.00
34925;BME280;21130;51.728;8.748;2023-04-08T12:07:26;101249.72;;;10.38;100.00
34925;BME280;21130;51.728;8.748;2023-04-08T12:09:53;101251.91;;;10.30;100.00
34925;BME280;21130;51.728;8.748;2023-04-08T12:12:20;101256.16;;;10.32;100.00
34925;BME280;21130;51.728;8.748;2023-04-08T12:14:47;101258.56;;;10.29;100.00
34925;BME280;21130;51.728;8.748;2023-04-08T12:17:14;101263.13;;;10.10;100.00
34925;BME280;21130;51.728;8.748;2023-04-08T12:19:41;101272.63;;;9.89;100.00
34925;BME280;21130;51.728;8.748;2023-04-08T12:22:07;101266.28;;;9.82;100.00
34925;BME280;21130;51.728;8.748;2023-04-08T12:24:34;101268.31;;;9.93;100.00
34925;BME280;21130;51.728;8.748;2023-04-08T12:27:00;101268.78;;;9.90;100.00
34925;BME280;21130;51.728;8.748;2023-04-08T12:29:28;101263.72;;;9.80;100.00
34925;BME280;21130;51.728;8.748;2023-04-08T12:31:56;101265.56;;;9.93;100.00
34925;BME280;21130;51.728;8.748;2023-04-08T12:34:23;101268.94;;;9.63;100.00
34925;BME280;21130;51.728;8.748;2023-04-08T12:36:50;101269.16;;;9.55;100.00
34925;BME280;21130;51.728;8.748;2023-04-08T12:39:16;101271.53;;;9.45;100.00
34925;BME280;21130;51.728;8.748;2023-04-08T12:41:42;101260.84;;;9.55;100.00
34925;BME280;21130;51.728;8.748;2023-04-08T12:44:09;101259.94;;;9.68;100.00
34925;BME280;21130;51.728;8.748;2023-04-08T12:46:36;101261.63;;;9.76;100.00
34925;BME280;21130;51.728;8.748;2023-04-08T12:49:03;101264.94;;;9.91;100.00
34925;BME280;21130;51.728;8.748;2023-04-08T12:51:30;101259.31;;;10.04;100.00
34925;BME280;21130;51.728;8.748;2023-04-08T12:53:56;101267.28;;;9.94;100.00
34925;BME280;21130;51.728;8.748;2023-04-08T12:56:24;101257.00;;;10.01;100.00